Otto, New York
Current Conditions -  °F | °C
As of 12:53 PM on Thursday 30 Oct 2014 (Local Time) from KDKK Reporting Station
Overcast Overcast  
Wind Chill: 43°   Ceiling: 3800
Heat Index: 47°   Visibility: 10mi
Dew Point: 36°   Wind: 9mph
Humidity: 66%   Direction: 270°W
Pressure: 30.08"   Gusts: NA
Location:  42.36°N, 78.83°W
Report Text: KDKK 301653Z AUTO 27008KT 10SM SCT028 OVC038 08/02 A3008 RMK AO2 SLP191 T00830022
Loading
Personal Weather Stations






























Interactive Weather Map
Tropical Storm Tracking
New forecast layout! Learn more

10-Day Weather Forecast

Advertisements
Track Severe Weather on mobile